Time;durP1;ratioP1;P1;durP2;ratioP2;P2;SDS_P1;SDS_P2;PMS_P1;PMS_P2;Temp;Humidity;BMP_temperature;BMP_pressure;BME280_temperature;BME280_humidity;BME280_pressure;Samples;Min_cycle;Max_cycle;Signal;HPM_P1;HPM_P2
2021/12/09 00:01:20;;;;;;;13.57;2.65;;;7.40;99.90;;;;;;5142051;27;20050;-85
2021/12/09 00:03:47;;;;;;;15.18;3.50;;;7.40;99.90;;;;;;5138401;27;20043;-85
2021/12/09 00:06:15;;;;;;;19.42;3.88;;;7.40;99.90;;;;;;5137976;27;20058;-86
2021/12/09 00:08:42;;;;;;;22.73;3.90;;;7.40;99.90;;;;;;5153135;27;20064;-85
2021/12/09 00:11:10;;;;;;;20.45;3.10;;;7.50;99.90;;;;;;5159027;27;20145;-84
2021/12/09 00:13:38;;;;;;;16.00;3.38;;;7.50;99.90;;;;;;5158034;27;20043;-85
2021/12/09 00:16:06;;;;;;;20.75;4.18;;;7.50;99.90;;;;;;5153005;27;20106;-84
2021/12/09 00:18:33;;;;;;;17.48;4.85;;;7.50;99.90;;;;;;5158569;27;20110;-85
2021/12/09 00:21:00;;;;;;;30.50;5.13;;;7.50;99.90;;;;;;5158651;27;20511;-85
2021/12/09 00:23:27;;;;;;;13.52;2.30;;;7.50;99.90;;;;;;5158772;27;20112;-85
2021/12/09 00:25:55;;;;;;;22.08;4.05;;;7.50;99.90;;;;;;5138777;27;20489;-85
2021/12/09 00:28:22;;;;;;;23.77;3.75;;;7.50;99.90;;;;;;5137674;27;20124;-85
2021/12/09 00:30:50;;;;;;;22.13;3.92;;;7.50;99.90;;;;;;5137559;27;20043;-85
2021/12/09 00:33:17;;;;;;;20.03;3.97;;;7.50;99.90;;;;;;5137836;27;20044;-86
2021/12/09 00:35:48;;;;;;;17.20;3.65;;;7.50;99.90;;;;;;5138313;27;20096;-85
2021/12/09 00:38:21;;;;;;;32.38;3.47;;;7.50;99.90;;;;;;5137269;27;20054;-85
2021/12/09 00:40:49;;;;;;;16.48;2.63;;;7.50;99.90;;;;;;5137413;27;20047;-86
2021/12/09 00:43:17;;;;;;;15.57;2.50;;;7.50;99.90;;;;;;5137044;27;20065;-86
2021/12/09 00:45:45;;;;;;;14.27;2.83;;;7.50;99.90;;;;;;5138154;27;20096;-86
2021/12/09 00:48:14;;;;;;;25.80;3.45;;;7.40;99.90;;;;;;5138740;27;20560;-86
2021/12/09 00:50:41;;;;;;;17.45;2.92;;;7.40;99.90;;;;;;5136621;27;20058;-86
2021/12/09 00:53:08;;;;;;;23.92;4.45;;;7.40;99.90;;;;;;5136715;27;20382;-86
2021/12/09 00:55:35;;;;;;;18.25;2.47;;;7.40;99.90;;;;;;5137778;27;20043;-85
2021/12/09 00:58:02;;;;;;;23.05;5.22;;;7.40;99.90;;;;;;5156483;27;20400;-85
2021/12/09 01:00:31;;;;;;;19.42;3.65;;;7.40;99.90;;;;;;5157819;27;20038;-85
2021/12/09 01:02:58;;;;;;;19.02;2.80;;;7.40;99.90;;;;;;5157011;27;20046;-85
2021/12/09 01:05:28;;;;;;;32.25;4.75;;;7.40;99.90;;;;;;5157921;27;20129;-85
2021/12/09 01:07:56;;;;;;;19.85;3.90;;;7.40;99.90;;;;;;5157765;27;20046;-84
2021/12/09 01:10:24;;;;;;;20.80;3.67;;;7.50;99.90;;;;;;5156737;27;20089;-85
2021/12/09 01:12:51;;;;;;;23.90;3.42;;;7.50;99.90;;;;;;5156871;27;20573;-85
2021/12/09 01:15:20;;;;;;;22.48;4.47;;;7.50;99.90;;;;;;5157317;27;20046;-86
2021/12/09 01:17:48;;;;;;;23.73;4.05;;;7.50;99.90;;;;;;5157294;27;20086;-85
2021/12/09 01:20:17;;;;;;;18.52;2.88;;;7.50;99.90;;;;;;5145252;27;20092;-85
2021/12/09 01:22:46;;;;;;;;;;;7.60;99.90;;;;;;5137083;27;20079;-85
2021/12/09 01:25:17;;;;;;;28.67;3.50;;;7.50;99.90;;;;;;5136814;27;19919;-86
2021/12/09 01:27:46;;;;;;;22.17;3.38;;;7.60;99.90;;;;;;5136962;27;20039;-86
2021/12/09 01:30:17;;;;;;;29.35;3.58;;;7.60;99.90;;;;;;5148441;27;20039;-86
2021/12/09 01:32:50;;;;;;;20.02;3.13;;;7.60;99.90;;;;;;5157916;27;20134;-86
2021/12/09 01:35:19;;;;;;;13.18;3.20;;;7.70;99.90;;;;;;5157102;27;20055;-86
2021/12/09 01:37:52;;;;;;;24.33;3.80;;;7.70;99.90;;;;;;5157001;27;20087;-85
2021/12/09 01:40:19;;;;;;;23.42;3.03;;;7.70;99.90;;;;;;5145098;27;20043;-86
2021/12/09 01:42:46;;;;;;;26.85;3.38;;;7.70;99.90;;;;;;5136245;27;20082;-86
2021/12/09 01:45:14;;;;;;;21.90;3.67;;;7.70;99.90;;;;;;5138137;27;20096;-85
2021/12/09 01:47:41;;;;;;;26.50;3.28;;;7.70;99.90;;;;;;5156943;27;20051;-85
2021/12/09 01:50:09;;;;;;;17.67;3.60;;;7.60;99.90;;;;;;5155843;27;20043;-86
2021/12/09 01:52:37;;;;;;;24.55;5.50;;;7.70;99.90;;;;;;5156915;27;20082;-86
2021/12/09 01:55:07;;;;;;;19.13;3.50;;;7.70;99.90;;;;;;5156726;27;20484;-86
2021/12/09 01:57:34;;;;;;;28.75;4.20;;;7.60;99.90;;;;;;5156582;27;20047;-85
2021/12/09 02:00:02;;;;;;;18.30;4.40;;;7.60;99.90;;;;;;5156217;27;20074;-86
2021/12/09 02:02:29;;;;;;;25.52;3.90;;;7.60;99.90;;;;;;5156550;27;20047;-84
2021/12/09 02:04:56;;;;;;;20.20;3.45;;;7.70;99.90;;;;;;5156441;27;20107;-85
2021/12/09 02:07:23;;;;;;;26.48;6.78;;;7.70;99.90;;;;;;5156690;27;20043;-85
2021/12/09 02:09:50;;;;;;;25.23;4.05;;;7.70;99.90;;;;;;5154676;27;20092;-85
2021/12/09 02:12:18;;;;;;;27.02;5.03;;;7.70;99.90;;;;;;5155566;27;20053;-84
2021/12/09 02:14:47;;;;;;;20.63;3.63;;;7.70;99.90;;;;;;5135308;27;20043;-85
2021/12/09 02:17:14;;;;;;;21.07;4.17;;;7.70;99.90;;;;;;5135533;27;20092;-85
2021/12/09 02:19:43;;;;;;;20.73;3.50;;;7.70;99.90;;;;;;5135043;27;20096;-84
2021/12/09 02:22:13;;;;;;;27.63;4.03;;;7.70;99.90;;;;;;5150589;27;20047;-84
2021/12/09 02:24:40;;;;;;;25.05;4.30;;;7.70;99.90;;;;;;5155869;27;20043;-84
2021/12/09 02:27:08;;;;;;;17.42;2.92;;;7.60;99.90;;;;;;5155709;27;20043;-85
2021/12/09 02:29:36;;;;;;;24.17;2.80;;;7.60;99.90;;;;;;5155864;27;20074;-84
2021/12/09 02:32:04;;;;;;;18.70;2.92;;;7.50;99.90;;;;;;5141276;27;20043;-85
2021/12/09 02:34:32;;;;;;;25.50;3.80;;;7.50;99.90;;;;;;5134670;27;20091;-85
2021/12/09 02:36:59;;;;;;;31.50;4.68;;;7.50;99.90;;;;;;5134653;27;20047;-84
2021/12/09 02:39:27;;;;;;;20.55;4.35;;;7.60;99.90;;;;;;5134775;27;20043;-84
2021/12/09 02:41:54;;;;;;;35.00;5.13;;;7.60;99.90;;;;;;5147405;27;20055;-85
2021/12/09 02:44:22;;;;;;;30.95;4.63;;;7.60;99.90;;;;;;5155915;27;20122;-85
2021/12/09 02:46:53;;;;;;;35.20;5.38;;;7.60;99.90;;;;;;5155423;27;20045;-86
2021/12/09 02:49:22;;;;;;;32.63;5.70;;;7.60;99.90;;;;;;5155300;27;20491;-85
2021/12/09 02:51:52;;;;;;;21.17;4.20;;;7.60;99.90;;;;;;5143036;27;20180;-85
2021/12/09 02:54:21;;;;;;;34.53;4.95;;;7.50;99.90;;;;;;5153178;27;20039;-85
2021/12/09 02:56:53;;;;;;;30.10;4.68;;;7.50;99.90;;;;;;5155512;27;20046;-85
2021/12/09 02:59:20;;;;;;;31.25;4.25;;;7.50;99.90;;;;;;5155494;27;20070;-85
2021/12/09 03:01:57;;;;;;;33.35;5.28;;;7.40;99.90;;;;;;5153951;27;20445;-86
2021/12/09 03:04:25;;;;;;;21.58;4.50;;;7.40;99.90;;;;;;5155109;27;20408;-85
2021/12/09 03:06:54;;;;;;;34.97;4.60;;;7.50;99.90;;;;;;5154827;27;20050;-85
2021/12/09 03:09:23;;;;;;;29.00;6.72;;;7.50;99.90;;;;;;5155085;27;20084;-84
2021/12/09 03:11:55;;;;;;;26.05;4.45;;;7.50;99.90;;;;;;5153235;27;20039;-85
2021/12/09 03:14:24;;;;;;;24.58;4.10;;;7.50;99.90;;;;;;5155295;27;20450;-85
2021/12/09 03:16:51;;;;;;;23.92;4.15;;;7.60;99.90;;;;;;5152079;27;20408;-86
2021/12/09 03:19:19;;;;;;;21.65;3.70;;;7.50;99.90;;;;;;5134410;28;20039;-85
2021/12/09 03:21:48;;;;;;;28.58;6.00;;;7.50;99.90;;;;;;5134445;28;20043;-85
2021/12/09 03:24:18;;;;;;;25.65;4.10;;;7.50;99.90;;;;;;5144600;27;20420;-85
2021/12/09 03:26:48;;;;;;;36.15;5.22;;;7.60;99.90;;;;;;5155228;27;20170;-85
2021/12/09 03:29:19;;;;;;;36.38;6.05;;;7.60;99.90;;;;;;5156069;27;20054;-87
2021/12/09 03:31:48;;;;;;;28.85;4.57;;;7.60;99.90;;;;;;5157237;27;20046;-85
2021/12/09 03:34:18;;;;;;;19.38;5.55;;;7.60;99.90;;;;;;5152351;27;20055;-86
2021/12/09 03:36:47;;;;;;;35.92;5.18;;;7.60;99.90;;;;;;5138731;27;20485;-86
2021/12/09 03:39:17;;;;;;;;;;;7.60;99.90;;;;;;5138839;27;20567;-85
2021/12/09 03:41:45;;;;;;;30.55;4.57;;;7.60;99.90;;;;;;5138343;27;19919;-85
2021/12/09 03:44:12;;;;;;;28.88;4.63;;;7.60;99.90;;;;;;5145062;27;20446;-85
2021/12/09 03:46:41;;;;;;;21.75;4.20;;;7.70;99.90;;;;;;5158952;27;20043;-85
2021/12/09 03:49:08;;;;;;;25.05;4.28;;;7.70;99.90;;;;;;5158939;27;20074;-86
2021/12/09 03:51:36;;;;;;;21.75;4.13;;;7.70;99.90;;;;;;5158924;27;20087;-85
2021/12/09 03:54:05;;;;;;;39.28;4.70;;;7.70;99.90;;;;;;5158199;27;20047;-85
2021/12/09 03:56:32;;;;;;;28.40;4.00;;;7.70;99.90;;;;;;5158545;27;20448;-85
2021/12/09 03:58:59;;;;;;;36.25;3.80;;;7.70;99.90;;;;;;5153345;27;20089;-85
2021/12/09 04:01:26;;;;;;;26.13;4.65;;;7.70;99.90;;;;;;5139376;27;20051;-85
2021/12/09 04:03:55;;;;;;;28.88;3.75;;;7.60;99.90;;;;;;5138589;27;20051;-86
2021/12/09 04:06:22;;;;;;;30.20;5.18;;;7.60;99.90;;;;;;5138355;27;20468;-86
2021/12/09 04:08:49;;;;;;;26.70;3.38;;;7.60;99.90;;;;;;5138220;27;20078;-86
2021/12/09 04:11:17;;;;;;;30.23;7.85;;;7.60;99.90;;;;;;5151692;27;20082;-87
2021/12/09 04:13:44;;;;;;;22.98;3.45;;;7.60;99.90;;;;;;5158504;27;20042;-86
2021/12/09 04:16:12;;;;;;;19.25;3.45;;;7.60;99.90;;;;;;5158950;27;20038;-85
2021/12/09 04:18:41;;;;;;;31.88;5.78;;;7.60;99.90;;;;;;5152800;27;20096;-86
2021/12/09 04:21:09;;;;;;;24.52;3.80;;;7.50;99.90;;;;;;5147482;27;20107;-85
2021/12/09 04:23:37;;;;;;;28.65;4.28;;;7.60;99.90;;;;;;5158895;27;20437;-86
2021/12/09 04:26:04;;;;;;;31.85;4.78;;;7.60;99.90;;;;;;5151676;27;20112;-86
2021/12/09 04:28:33;;;;;;;26.67;4.88;;;7.50;99.90;;;;;;5157522;27;20058;-85
2021/12/09 04:31:00;;;;;;;33.47;6.10;;;7.50;99.90;;;;;;5158182;27;20456;-86
2021/12/09 04:33:27;;;;;;;29.45;5.03;;;7.50;99.90;;;;;;5158556;27;20047;-86
2021/12/09 04:35:55;;;;;;;35.78;4.80;;;7.50;99.90;;;;;;5157503;27;20058;-85
2021/12/09 04:38:23;;;;;;;29.08;5.18;;;7.60;99.90;;;;;;5158397;27;20066;-85
2021/12/09 04:40:51;;;;;;;23.95;4.25;;;7.60;99.90;;;;;;5158161;27;20078;-85
2021/12/09 04:43:18;;;;;;;20.08;5.05;;;7.60;99.90;;;;;;5157874;27;20560;-85
2021/12/09 04:45:46;;;;;;;34.28;4.63;;;7.60;99.90;;;;;;5151330;27;20085;-86
2021/12/09 04:48:13;;;;;;;31.25;5.07;;;7.60;99.90;;;;;;5156863;27;20122;-84
2021/12/09 04:50:41;;;;;;;34.60;4.68;;;7.60;99.90;;;;;;5158351;27;20070;-85
2021/12/09 04:53:08;;;;;;;39.47;6.95;;;7.60;99.90;;;;;;5158224;27;20385;-85
2021/12/09 04:55:37;;;;;;;32.90;5.70;;;7.60;99.90;;;;;;5153140;27;20107;-84
2021/12/09 04:58:07;;;;;;;36.83;4.28;;;7.50;99.90;;;;;;5137402;27;20405;-86
2021/12/09 05:00:37;;;;;;;29.48;4.95;;;7.60;99.90;;;;;;5150652;27;20085;-85
2021/12/09 05:03:07;;;;;;;24.17;4.40;;;7.60;99.90;;;;;;5156952;27;20055;-85
2021/12/09 05:05:37;;;;;;;31.23;6.03;;;7.60;99.90;;;;;;5157608;27;20095;-87
2021/12/09 05:08:06;;;;;;;22.17;3.78;;;7.50;99.90;;;;;;5157055;27;20047;-86
2021/12/09 05:10:50;;;;;;;26.08;3.90;;;7.60;99.90;;;;;;5157092;27;20039;-85
2021/12/09 05:13:17;;;;;;;30.80;4.50;;;7.60;99.90;;;;;;5149894;27;20046;-84
2021/12/09 05:15:45;;;;;;;42.00;5.80;;;7.60;99.90;;;;;;5136344;27;20051;-84
2021/12/09 05:18:12;;;;;;;25.45;5.45;;;7.70;99.90;;;;;;5136518;27;20085;-85
2021/12/09 05:20:40;;;;;;;27.35;4.10;;;7.60;99.90;;;;;;5136651;27;20485;-84
2021/12/09 05:23:07;;;;;;;27.83;4.15;;;7.60;99.90;;;;;;5136599;27;20080;-85
2021/12/09 05:25:35;;;;;;;30.15;5.10;;;7.70;99.90;;;;;;5147766;27;20046;-84
2021/12/09 05:28:03;;;;;;;25.45;4.03;;;7.70;99.90;;;;;;5157623;27;20046;-85
2021/12/09 05:30:39;;;;;;;25.45;3.85;;;7.60;99.90;;;;;;5156581;27;20047;-84
2021/12/09 05:33:06;;;;;;;25.95;3.97;;;7.60;99.90;;;;;;5163338;27;20106;-84
2021/12/09 05:35:34;;;;;;;28.00;4.82;;;7.60;99.90;;;;;;5167703;27;20050;-86
2021/12/09 05:38:01;;;;;;;31.40;5.47;;;7.50;99.90;;;;;;5157314;27;20177;-86
2021/12/09 05:40:28;;;;;;;23.42;4.45;;;7.50;99.90;;;;;;5157291;27;20151;-86
2021/12/09 05:42:56;;;;;;;22.77;3.67;;;7.40;99.90;;;;;;5156444;27;20102;-86
2021/12/09 05:45:23;;;;;;;31.67;3.30;;;7.40;99.90;;;;;;5157259;27;20039;-86
2021/12/09 05:47:51;;;;;;;29.38;4.78;;;7.30;99.90;;;;;;5156016;27;20130;-85
2021/12/09 05:50:18;;;;;;;28.88;3.42;;;7.30;99.90;;;;;;5157067;27;20043;-85
2021/12/09 05:52:45;;;;;;;26.30;4.15;;;7.20;99.90;;;;;;5156536;27;20053;-86
2021/12/09 05:55:12;;;;;;;26.67;4.00;;;7.20;99.90;;;;;;5156968;27;20500;-86
2021/12/09 05:57:39;;;;;;;21.60;3.90;;;7.30;99.90;;;;;;5148545;27;20043;-86
2021/12/09 06:00:09;;;;;;;32.83;4.00;;;7.30;99.90;;;;;;5135672;27;20135;-84
2021/12/09 06:02:36;;;;;;;22.90;3.40;;;7.30;99.90;;;;;;5135622;27;20051;-86
2021/12/09 06:05:04;;;;;;;24.35;3.28;;;7.40;99.90;;;;;;5136051;27;20054;-84
2021/12/09 06:07:31;;;;;;;26.92;3.22;;;7.40;99.90;;;;;;5136390;27;20077;-84
2021/12/09 06:10:00;;;;;;;22.10;3.20;;;7.90;99.90;;;;;;5135724;27;20043;-84
2021/12/09 06:12:28;;;;;;;23.02;3.38;;;7.40;99.90;;;;;;5135676;27;20489;-85
2021/12/09 06:14:55;;;;;;;24.15;3.78;;;7.30;99.90;;;;;;5135487;27;20167;-86
2021/12/09 06:17:23;;;;;;;28.33;4.72;;;7.30;99.90;;;;;;5140383;27;20568;-86
2021/12/09 06:19:50;;;;;;;18.92;4.03;;;7.20;99.90;;;;;;5156084;27;20047;-85
2021/12/09 06:22:17;;;;;;;26.70;3.67;;;7.20;99.90;;;;;;5156210;27;20154;-85
2021/12/09 06:24:45;;;;;;;28.80;3.42;;;7.20;99.90;;;;;;5156354;27;20095;-85
2021/12/09 06:27:13;;;;;;;22.98;4.63;;;7.20;99.90;;;;;;5152612;27;20039;-84
2021/12/09 06:29:40;;;;;;;19.85;3.45;;;7.20;99.90;;;;;;5135598;27;20409;-86
2021/12/09 06:32:08;;;;;;;26.63;5.47;;;7.20;99.90;;;;;;5135255;27;20131;-85
2021/12/09 06:34:36;;;;;;;27.58;3.28;;;7.20;99.90;;;;;;5147217;27;20412;-86
2021/12/09 06:37:04;;;;;;;24.73;4.23;;;7.20;99.90;;;;;;5155859;27;20087;-86
2021/12/09 06:39:32;;;;;;;30.42;6.10;;;7.20;99.90;;;;;;5154882;27;20043;-85
2021/12/09 06:41:59;;;;;;;24.02;3.08;;;7.30;99.90;;;;;;5155700;27;20042;-86
2021/12/09 06:44:26;;;;;;;19.75;4.20;;;7.30;99.90;;;;;;5141273;27;20051;-86
2021/12/09 06:46:55;;;;;;;27.17;4.28;;;7.30;99.90;;;;;;5134920;27;20409;-87
2021/12/09 06:49:23;;;;;;;27.30;4.35;;;7.30;99.90;;;;;;5137258;27;20103;-86
2021/12/09 06:51:52;;;;;;;22.15;3.72;;;7.30;99.90;;;;;;5155833;27;20043;-86
2021/12/09 06:54:19;;;;;;;28.02;5.07;;;7.30;99.90;;;;;;5156146;27;20111;-86
2021/12/09 06:56:46;;;;;;;24.95;4.43;;;7.20;99.90;;;;;;5155700;27;20074;-86
2021/12/09 06:59:13;;;;;;;30.10;4.40;;;7.20;99.90;;;;;;5140573;27;20043;-86
2021/12/09 07:01:40;;;;;;;25.05;3.50;;;7.20;99.90;;;;;;5134840;27;20039;-86
2021/12/09 07:04:09;;;;;;;33.47;4.40;;;7.20;99.90;;;;;;5134748;27;20163;-86
2021/12/09 07:06:37;;;;;;;23.33;4.80;;;7.20;99.90;;;;;;5134763;27;20051;-85
2021/12/09 07:09:06;;;;;;;29.42;4.38;;;7.20;99.90;;;;;;5147511;27;20042;-87
2021/12/09 07:11:33;;;;;;;29.40;4.57;;;7.20;99.90;;;;;;5154546;27;20043;-86
2021/12/09 07:14:02;;;;;;;34.67;4.68;;;7.10;99.90;;;;;;5155137;27;20050;-86
2021/12/09 07:16:29;;;;;;;29.98;4.45;;;7.10;99.90;;;;;;5145288;27;20092;-86
2021/12/09 07:18:56;;;;;;;27.25;4.18;;;7.10;99.90;;;;;;5134049;27;20088;-85
2021/12/09 07:21:23;;;;;;;26.45;5.38;;;7.10;99.90;;;;;;5134272;28;20055;-86
2021/12/09 07:23:50;;;;;;;27.67;4.03;;;7.10;99.90;;;;;;5147881;27;20082;-85
2021/12/09 07:26:19;;;;;;;29.90;5.15;;;7.00;99.90;;;;;;5153574;27;20039;-85
2021/12/09 07:28:46;;;;;;;32.40;4.18;;;7.00;99.90;;;;;;5155570;27;20042;-85
2021/12/09 07:31:14;;;;;;;21.55;4.25;;;7.00;99.90;;;;;;5155381;27;20078;-85
2021/12/09 07:33:41;;;;;;;21.70;3.90;;;7.00;99.90;;;;;;5155007;27;20043;-86
2021/12/09 07:36:08;;;;;;;33.97;4.32;;;7.00;99.90;;;;;;5154954;27;20107;-86
2021/12/09 07:38:35;;;;;;;26.63;4.07;;;7.00;99.90;;;;;;5155273;27;20493;-85
2021/12/09 07:41:02;;;;;;;38.13;4.25;;;7.00;99.90;;;;;;5156024;27;20043;-85
2021/12/09 07:43:30;;;;;;;17.08;3.28;;;7.00;99.90;;;;;;5154348;27;20089;-86
2021/12/09 07:45:58;;;;;;;28.77;4.20;;;7.00;99.90;;;;;;5155941;27;20480;-85
2021/12/09 07:48:25;;;;;;;22.70;5.53;;;7.10;99.90;;;;;;5155484;27;20291;-85
2021/12/09 07:50:53;;;;;;;23.45;3.90;;;7.10;99.90;;;;;;5154948;27;20084;-84
2021/12/09 07:53:21;;;;;;;20.08;4.03;;;7.20;99.90;;;;;;5154837;27;20046;-86
2021/12/09 07:55:48;;;;;;;30.27;4.32;;;7.20;99.90;;;;;;5155565;27;20389;-85
2021/12/09 07:58:16;;;;;;;31.50;4.07;;;7.10;99.90;;;;;;5154907;27;20382;-86
2021/12/09 08:00:45;;;;;;;22.00;2.97;;;7.10;99.90;;;;;;5154454;27;20082;-85
2021/12/09 08:03:12;;;;;;;20.25;3.55;;;7.10;99.90;;;;;;5153593;27;20486;-85
2021/12/09 08:05:42;;;;;;;30.00;5.93;;;7.10;99.90;;;;;;5155580;27;20039;-85
2021/12/09 08:08:12;;;;;;;21.90;4.97;;;7.10;99.90;;;;;;5154978;27;20404;-85
2021/12/09 08:10:39;;;;;;;21.23;3.33;;;7.10;99.90;;;;;;5154514;27;20043;-85
2021/12/09 08:13:08;;;;;;;20.65;3.30;;;7.20;99.90;;;;;;5138219;27;20419;-86
2021/12/09 08:15:38;;;;;;;31.07;5.73;;;7.10;99.90;;;;;;5135531;28;20043;-85
2021/12/09 08:18:26;;;;;;;24.30;3.28;;;7.20;99.90;;;;;;5150251;27;20050;-84
2021/12/09 08:20:56;;;;;;;33.80;4.95;;;7.20;99.90;;;;;;5151420;27;20036;-86
2021/12/09 08:23:24;;;;;;;29.98;3.47;;;7.20;99.90;;;;;;5140365;27;20046;-86
2021/12/09 08:25:51;;;;;;;22.80;4.13;;;7.30;99.90;;;;;;5152434;27;20047;-85
2021/12/09 08:28:18;;;;;;;20.90;3.72;;;7.20;99.90;;;;;;5137490;27;20123;-85
2021/12/09 08:30:46;;;;;;;19.50;6.00;;;7.20;99.90;;;;;;5140198;27;20047;-85
2021/12/09 08:33:14;;;;;;;27.75;4.57;;;7.30;99.90;;;;;;5159363;27;20065;-85
2021/12/09 08:35:41;;;;;;;28.50;5.87;;;7.30;99.90;;;;;;5155873;27;20123;-86
2021/12/09 08:38:09;;;;;;;19.45;3.15;;;7.30;99.90;;;;;;5136836;27;20339;-85
2021/12/09 08:40:37;;;;;;;29.63;4.43;;;7.30;99.90;;;;;;5137748;27;20047;-85
2021/12/09 08:43:04;;;;;;;29.35;4.47;;;7.30;99.90;;;;;;5139814;27;20043;-85
2021/12/09 08:45:31;;;;;;;22.30;4.10;;;7.30;99.90;;;;;;5137394;27;20047;-85
2021/12/09 08:47:58;;;;;;;21.73;4.25;;;7.30;99.90;;;;;;5136766;27;20080;-85
2021/12/09 08:50:32;;;;;;;22.05;3.80;;;7.30;99.90;;;;;;5137344;27;20450;-85
2021/12/09 08:53:01;;;;;;;23.48;3.40;;;7.30;99.90;;;;;;5139315;27;20047;-85
2021/12/09 08:55:29;;;;;;;31.92;3.92;;;7.40;99.90;;;;;;5156892;27;20390;-87
2021/12/09 08:57:56;;;;;;;22.45;3.42;;;7.40;99.90;;;;;;5132987;27;20042;-85
2021/12/09 09:00:26;;;;;;;22.83;2.92;;;7.40;99.90;;;;;;5142950;27;20107;-84
2021/12/09 09:02:53;;;;;;;28.67;6.90;;;7.50;99.90;;;;;;5140461;27;20485;-85
2021/12/09 09:05:21;;;;;;;28.80;6.10;;;7.60;99.90;;;;;;5147829;27;20050;-86
2021/12/09 09:07:51;;;;;;;25.23;4.72;;;7.70;99.90;;;;;;5138872;27;20040;-86
2021/12/09 09:10:20;;;;;;;22.80;4.25;;;7.40;99.90;;;;;;5134129;27;20050;-85
2021/12/09 09:12:48;;;;;;;21.00;5.13;;;7.60;99.90;;;;;;5107230;27;20127;-83
2021/12/09 09:15:18;;;;;;;33.10;3.20;;;7.60;99.90;;;;;;5067352;27;21167;-86
2021/12/09 09:17:45;;;;;;;17.98;3.40;;;7.60;99.90;;;;;;5065428;27;20050;-84
2021/12/09 09:20:15;;;;;;;23.02;3.08;;;7.50;99.90;;;;;;5074950;27;20051;-85
2021/12/09 09:22:43;;;;;;;16.45;3.05;;;7.40;99.90;;;;;;5073254;27;20335;-85
2021/12/09 09:25:17;;;;;;;19.00;4.90;;;7.40;99.90;;;;;;5073753;27;20127;-84
2021/12/09 09:27:44;;;;;;;24.65;4.25;;;7.40;99.90;;;;;;5078695;27;21215;-85
2021/12/09 09:30:14;;;;;;;31.08;3.80;;;7.40;99.90;;;;;;5075925;27;20279;-87
2021/12/09 09:32:42;;;;;;;27.45;3.47;;;7.50;99.90;;;;;;5092294;27;20047;-83
2021/12/09 09:35:11;;;;;;;18.20;3.22;;;7.60;99.90;;;;;;5088833;27;20613;-87
2021/12/09 09:37:39;;;;;;;20.35;4.35;;;7.50;99.90;;;;;;5104230;27;20075;-85
2021/12/09 09:40:09;;;;;;;18.33;3.13;;;7.40;99.90;;;;;;5123826;27;20051;-85
2021/12/09 09:45:24;;;;;;;15.68;2.20;;;7.30;99.90;;;;;;5145111;27;20054;-86
2021/12/09 09:47:51;;;;;;;11.95;2.85;;;7.10;99.90;;;;;;5071952;27;20133;-86
2021/12/09 09:50:19;;;;;;;19.42;3.13;;;7.10;99.90;;;;;;5071377;27;20069;-86
2021/12/09 09:52:46;;;;;;;29.15;5.40;;;7.00;99.90;;;;;;5070080;27;20115;-85
2021/12/09 09:55:20;;;;;;;23.13;3.65;;;7.10;99.90;;;;;;5067348;27;20036;-85
2021/12/09 09:57:52;;;;;;;21.15;2.88;;;7.20;99.90;;;;;;5096581;27;20121;-85
2021/12/09 10:00:22;;;;;;;47.35;5.40;;;7.20;99.90;;;;;;5067927;27;21356;-83
2021/12/09 10:02:53;;;;;;;22.25;3.35;;;7.40;99.90;;;;;;5055219;27;21366;-83
2021/12/09 10:05:28;;;;;;;28.35;3.70;;;7.50;99.90;;;;;;5055830;27;20043;-83
2021/12/09 10:07:56;;;;;;;23.00;3.35;;;7.50;99.90;;;;;;5067620;27;20199;-86
2021/12/09 10:10:27;;;;;;;20.00;2.75;;;7.50;99.90;;;;;;5131209;27;20054;-88
2021/12/09 10:12:58;;;;;;;21.50;4.63;;;7.70;99.90;;;;;;5141779;27;20130;-85
2021/12/09 10:15:41;;;;;;;19.38;3.97;;;7.40;99.90;;;;;;5145463;27;20607;-84
2021/12/09 10:18:08;;;;;;;23.58;6.70;;;7.70;99.90;;;;;;5138273;27;20738;-85
2021/12/09 10:20:54;;;;;;;25.27;5.90;;;7.70;99.90;;;;;;5139377;27;20078;-86
2021/12/09 10:23:30;;;;;;;19.38;4.47;;;7.70;99.90;;;;;;5136554;27;20530;-86
2021/12/09 10:26:28;;;;;;;23.15;4.10;;;7.60;99.90;;;;;;5143184;27;20045;-86
2021/12/09 10:29:10;;;;;;;18.92;3.70;;;7.70;99.90;;;;;;5141540;27;20035;-85
2021/12/09 10:31:44;;;;;;;21.40;4.20;;;7.70;99.90;;;;;;5142473;27;20054;-85
2021/12/09 10:34:19;;;;;;;17.73;3.63;;;7.70;99.90;;;;;;5139273;27;20051;-85
2021/12/09 10:36:56;;;;;;;26.13;3.78;;;7.70;99.90;;;;;;5143009;27;20050;-84
2021/12/09 10:39:27;;;;;;;21.63;5.13;;;7.70;99.90;;;;;;5143062;27;20034;-86
2021/12/09 10:41:58;;;;;;;27.60;5.00;;;7.70;99.90;;;;;;5135278;27;20042;-86
2021/12/09 10:44:39;;;;;;;18.15;2.95;;;7.60;99.90;;;;;;5141479;27;20047;-85
2021/12/09 10:47:12;;;;;;;11.43;3.28;;;7.60;99.90;;;;;;5142097;27;20046;-84
2021/12/09 10:49:53;;;;;;;17.92;3.35;;;7.60;99.90;;;;;;5138585;27;20400;-90
2021/12/09 10:52:29;;;;;;;23.48;3.25;;;7.70;99.90;;;;;;5139541;27;20501;-85
2021/12/09 10:54:56;;;;;;;24.33;4.32;;;7.60;99.90;;;;;;5139154;27;20099;-86
2021/12/09 10:57:25;;;;;;;20.88;2.97;;;7.50;99.90;;;;;;5144594;27;20047;-85
2021/12/09 10:59:54;;;;;;;16.70;3.47;;;7.50;99.90;;;;;;5137283;27;20103;-85
2021/12/09 11:02:22;;;;;;;18.60;3.67;;;7.30;99.90;;;;;;5141812;27;20050;-86
2021/12/09 11:05:04;;;;;;;15.20;3.00;;;7.30;99.90;;;;;;5140424;27;20047;-86
2021/12/09 11:07:32;;;;;;;14.30;2.83;;;7.50;99.90;;;;;;5139300;27;20797;-85
2021/12/09 11:10:17;;;;;;;16.05;3.97;;;7.50;99.90;;;;;;5140420;27;20376;-86
2021/12/09 11:12:50;;;;;;;25.77;3.78;;;7.50;99.90;;;;;;5138602;27;20065;-86
2021/12/09 11:15:19;;;;;;;18.60;2.85;;;7.60;99.90;;;;;;5139983;27;20099;-86
2021/12/09 11:17:49;;;;;;;14.18;3.85;;;7.70;99.90;;;;;;5140032;27;20043;-84
2021/12/09 11:20:44;;;;;;;18.42;3.03;;;7.70;99.90;;;;;;5138896;27;20440;-86
2021/12/09 11:23:52;;;;;;;17.08;2.90;;;7.70;99.90;;;;;;5137054;27;20461;-87
2021/12/09 11:26:44;;;;;;;11.25;2.80;;;7.70;99.90;;;;;;5139722;27;20103;-84
2021/12/09 11:29:17;;;;;;;13.75;3.47;;;7.70;99.90;;;;;;5142397;27;20043;-83
2021/12/09 11:31:54;;;;;;;19.60;3.38;;;7.70;99.90;;;;;;5140926;27;20186;-83
2021/12/09 11:34:26;;;;;;;12.48;4.32;;;7.80;99.90;;;;;;5138773;27;20130;-84
2021/12/09 11:36:57;;;;;;;17.95;3.00;;;7.80;99.90;;;;;;5069505;27;21133;-82
2021/12/09 11:39:42;;;;;;;11.43;2.38;;;7.90;99.90;;;;;;5070496;27;20532;-87
2021/12/09 11:42:21;;;;;;;16.10;3.97;;;7.70;99.90;;;;;;5077051;27;20035;-91
2021/12/09 11:44:48;;;;;;;;;;;7.60;99.90;;;;;;5066913;27;20133;-85
2021/12/09 11:47:18;;;;;;;18.25;3.85;;;7.60;99.90;;;;;;5066771;27;19919;-84
2021/12/09 11:49:46;;;;;;;14.48;2.55;;;7.60;99.90;;;;;;5064045;27;20071;-86
2021/12/09 11:52:16;;;;;;;32.33;4.80;;;7.60;99.90;;;;;;5059499;27;20467;-85
2021/12/09 11:54:53;;;;;;;8.55;3.50;;;7.70;99.90;;;;;;5060217;27;20719;-84
2021/12/09 11:57:33;;;;;;;20.33;5.97;;;7.70;99.90;;;;;;5063346;27;20293;-84
2021/12/09 12:07:06;;;;;;;15.75;3.53;;;8.00;99.90;;;;;;5064445;27;20050;-86
2021/12/09 12:12:53;;;;;;;17.75;3.65;;;8.20;99.90;;;;;;5055079;27;20359;-85
2021/12/09 12:15:47;;;;;;;14.70;4.03;;;8.40;99.90;;;;;;5065180;27;20043;-83
2021/12/09 12:18:32;;;;;;;13.73;2.88;;;8.30;99.90;;;;;;5060199;27;20122;-83
2021/12/09 12:40:00;;;;;;;15.23;3.95;;;8.20;99.90;;;;;;5140337;27;20071;-85
2021/12/09 12:42:44;;;;;;;15.68;4.30;;;8.30;99.90;;;;;;5056791;27;21332;-84
2021/12/09 12:45:28;;;;;;;11.30;3.17;;;8.30;99.90;;;;;;5059690;27;20671;-84
2021/12/09 12:48:09;;;;;;;12.98;2.50;;;8.20;99.90;;;;;;5060379;27;20035;-84
2021/12/09 12:50:36;;;;;;;10.55;1.95;;;8.30;99.90;;;;;;5057795;27;20169;-84
2021/12/09 12:53:31;;;;;;;17.17;4.20;;;8.40;99.90;;;;;;5066685;27;20455;-86
2021/12/09 12:56:14;;;;;;;16.05;2.80;;;8.40;99.90;;;;;;5140228;27;20046;-87
2021/12/09 12:59:01;;;;;;;13.77;2.83;;;8.30;99.90;;;;;;5141507;27;20047;-86
2021/12/09 13:01:28;;;;;;;15.07;3.53;;;8.30;99.90;;;;;;5149510;27;20058;-87
2021/12/09 13:04:00;;;;;;;15.55;2.50;;;8.20;99.90;;;;;;5143160;27;20100;-87
2021/12/09 13:06:43;;;;;;;13.65;2.88;;;8.30;99.90;;;;;;5131470;27;20161;-86
2021/12/09 13:09:28;;;;;;;8.57;1.95;;;8.50;99.90;;;;;;5114942;27;20100;-86
2021/12/09 13:12:01;;;;;;;12.75;2.95;;;8.50;99.90;;;;;;5154348;27;20054;-85
2021/12/09 13:14:32;;;;;;;12.38;1.90;;;8.40;99.90;;;;;;5157343;27;20049;-86
2021/12/09 13:17:09;;;;;;;12.82;2.45;;;8.00;99.90;;;;;;5141159;27;20051;-86
2021/12/09 13:19:42;;;;;;;11.52;2.58;;;8.20;99.90;;;;;;5148716;27;20484;-86
2021/12/09 13:22:28;;;;;;;11.45;2.55;;;8.00;99.90;;;;;;5153948;27;20064;-86
2021/12/09 13:25:13;;;;;;;11.77;2.33;;;7.90;99.90;;;;;;5135133;27;20438;-86
2021/12/09 13:27:53;;;;;;;9.50;2.28;;;7.90;99.90;;;;;;5115259;27;20104;-85
2021/12/09 13:47:38;;;;;;;15.98;2.70;;;7.40;99.90;;;;;;5066905;27;20050;-84
2021/12/09 13:55:40;;;;;;;14.40;3.28;;;8.40;99.90;;;;;;5071228;27;20781;-85
2021/12/09 13:58:10;;;;;;;10.05;2.63;;;8.40;99.90;;;;;;5077280;27;20196;-87